HOT - SCOPE
in the School of Ocean and Earth Science and Technology at the University of Hawai'i



Xeos # 1 : IMEI 51020 (s/n 77)

*Note: The cut-off voltage for the Xeos Apollo Beacon is 1.5V .

GMT GMT Latitude Longitude Speed Head SNR HDOP Batt(u) Batt(l)
date time deg N deg W knots deg volts volts
1-19-2018 19:00:14 21o 18.906' ( 21.3151) 157o 52.632' (-157.8772) 0.0 0 39 1.2 3.57 2.85
1-19-2018 18:00:13 21o 18.917' ( 21.3153) 157o 52.638' (-157.8773) 0.0 0 42 1.0 3.60 2.88
1-19-2018 17:00:35 21o 17.532' ( 21.2922) 157o 52.392' (-157.8732) 2.9 30 40 1.0 3.57 2.85
1-19-2018 16:00:13 21o 14.846' ( 21.2474) 157o 54.092' (-157.9015) 0.3 306 46 2.0 3.60 2.94
1-19-2018 15:00:13 21o 14.480' ( 21.2413) 157o 57.328' (-157.9555) 2.1 84 44 1.2 3.57 2.88
1-19-2018 14:00:34 21o 14.778' ( 21.2463) 158o 3.675' (-158.0613) 3.8 90 45 1.6 3.60 2.91
1-19-2018 13:00:36 21o 19.010' ( 21.3168) 158o 14.326' (-158.2388) 6.2 135 44 1.6 3.60 2.88
1-19-2018 12:00:19 21o 29.684' ( 21.4947) 158o 19.288' (-158.3215) 6.4 174 44 1.2 3.60 2.88
1-19-2018 11:00:25 21o 41.303' ( 21.6884) 158o 20.173' (-158.3362) 5.6 189 43 1.2 3.57 2.85
1-19-2018 10:00:36 21o 52.010' ( 21.8668) 158o 17.365' (-158.2894) 6.1 204 44 1.4 3.60 2.88
1-19-2018 9:00:15 22o 2.438' ( 22.0406) 158o 13.492' (-158.2249) 5.6 198 47 1.2 3.60 2.85
1-19-2018 8:00:14 22o 12.827' ( 22.2138) 158o 9.449' (-158.1575) 5.3 201 47 1.0 3.60 2.88
1-19-2018 7:00:36 22o 23.227' ( 22.3871) 158o 5.608' (-158.0935) 6.0 201 45 1.4 3.54 2.82
1-19-2018 6:00:37 22o 33.983' ( 22.5664) 158o 1.623' (-158.0271) 5.2 195 40 1.6 3.60 2.85
1-19-2018 5:00:20 22o 41.843' ( 22.6974) 157o 58.429' (-157.9738) 0.4 297 47 1.0 3.60 2.85
1-19-2018 4:00:13 22o 41.444' ( 22.6907) 157o 58.863' (-157.9811) 2.0 90 48 1.6 3.63 2.85
1-19-2018 3:00:35 22o 42.132' ( 22.7022) 158o 2.157' (-158.0360) 4.8 222 45 1.0 3.60 2.94
1-19-2018 2:00:36 22o 45.089' ( 22.7515) 157o 59.986' (-157.9998) 1.0 201 46 2.0 3.60 2.91
1-19-2018 1:00:26 22o 44.582' ( 22.7430) 158o 0.032' (-158.0005) 1.9 309 49 4.0 3.57 2.88
1-19-2018 0:00:35 22o 44.068' ( 22.7345) 158o 0.059' (-158.0010) 0.8 30 47 2.0 3.60 2.91
1-18-2018 23:00:41 22o 44.140' ( 22.7357) 157o 56.966' (-157.9494) 3.4 246 45 1.8 3.57 2.88
1-18-2018 22:00:14 22o 45.913' ( 22.7652) 157o 47.864' (-157.7977) 3.8 246 46 1.2 3.57 2.85
1-18-2018 21:00:13 22o 48.732' ( 22.8122) 157o 39.149' (-157.6525) 4.2 267 47 1.4 3.60 2.85
1-18-2018 20:00:35 22o 51.190' ( 22.8532) 157o 30.534' (-157.5089) 3.7 249 46 1.4 3.60 2.85
1-18-2018 19:00:17 22o 54.276' ( 22.9046) 157o 21.901' (-157.3650) 4.6 240 46 1.8 3.60 2.82
1-18-2018 18:00:13 22o 55.363' ( 22.9227) 157o 22.145' (-157.3691) 1.8 90 44 1.6 3.60 2.88
1-18-2018 17:00:35 22o 54.208' ( 22.9035) 157o 25.744' (-157.4291) 1.7 63 45 1.4 3.54 2.82
1-18-2018 15:00:13 22o 52.056' ( 22.8676) 157o 33.162' (-157.5527) 2.1 99 44 1.8 3.60 2.79
1-18-2018 14:00:16 22o 51.036' ( 22.8506) 157o 36.802' (-157.6134) 4.2 66 42 3.2 3.60 2.82
1-18-2018 13:00:35 22o 49.913' ( 22.8319) 157o 40.348' (-157.6725) 1.8 69 44 1.2 3.60 2.85
1-18-2018 12:00:13 22o 49.123' ( 22.8187) 157o 43.865' (-157.7311) 2.5 111 46 1.2 3.60 2.82
1-18-2018 11:00:13 22o 48.769' ( 22.8128) 157o 47.138' (-157.7856) 1.1 267 45 1.2 3.57 2.76
1-18-2018 10:00:35 22o 48.619' ( 22.8103) 157o 49.714' (-157.8286) 2.0 96 45 1.4 3.57 2.76
1-18-2018 9:00:11 22o 48.545' ( 22.8091) 157o 51.664' (-157.8611) 1.2 129 44 2.4 3.57 2.76
1-18-2018 8:00:35 22o 48.784' ( 22.8131) 157o 54.569' (-157.9095) 2.2 114 46 1.6 3.60 2.76
1-18-2018 7:00:13 22o 49.164' ( 22.8194) 157o 57.946' (-157.9658) 1.0 96 45 1.6 3.63 2.79
1-18-2018 6:00:12 22o 46.916' ( 22.7819) 157o 58.038' (-157.9673) 1.0 69 43 0.8 3.60 2.79
1-18-2018 5:00:36 22o 45.235' ( 22.7539) 157o 59.932' (-157.9989) 1.4 99 45 1.6 3.60 2.76
1-18-2018 4:00:13 22o 45.177' ( 22.7529) 157o 59.857' (-157.9976) 0.4 0 45 1.0 3.63 2.85
1-18-2018 3:00:17 22o 45.114' ( 22.7519) 157o 59.993' (-157.9999) 0.5 171 47 1.6 3.57 2.82
1-18-2018 2:00:36 22o 48.094' ( 22.8016) 158o 1.297' (-158.0216) 0.2 150 50 1.0 3.60 2.85
1-18-2018 1:00:42 22o 48.014' ( 22.8002) 158o 1.356' (-158.0226) 0.3 0 45 2.2 3.60 2.88
1-18-2018 0:00:14 22o 49.705' ( 22.8284) 158o 2.575' (-158.0429) 5.6 156 48 4.4 3.63 2.91
1-17-2018 23:00:42 22o 44.983' ( 22.7497) 157o 59.974' (-157.9996) 0.7 327 47 3.4 3.57 2.91
1-17-2018 22:00:35 22o 45.040' ( 22.7507) 157o 59.921' (-157.9987) 0.1 0 48 1.8 3.60 2.88
1-17-2018 21:00:35 22o 45.026' ( 22.7504) 157o 59.934' (-157.9989) 0.9 123 48 1.4 3.60 2.85
1-17-2018 20:00:14 22o 45.004' ( 22.7501) 158o 0.036' (-158.0006) 0.2 183 48 2.0 3.63 2.88
1-17-2018 19:00:35 22o 44.998' ( 22.7500) 158o 0.037' (-158.0006) 0.3 0 49 2.4 3.57 2.85
1-17-2018 18:00:17 22o 44.999' ( 22.7500) 158o 0.026' (-158.0004) 0.2 0 47 2.6 3.60 2.88
1-17-2018 17:00:18 22o 45.008' ( 22.7501) 157o 59.989' (-157.9998) 0.2 0 46 1.4 3.60 2.88
1-17-2018 16:00:36 22o 45.008' ( 22.7501) 157o 59.976' (-157.9996) 0.4 108 50 1.0 3.60 2.91
1-17-2018 15:00:26 22o 44.989' ( 22.7498) 158o 0.024' (-158.0004) 0.4 303 47 2.8 3.60 2.88
1-17-2018 14:00:36 22o 45.863' ( 22.7644) 158o 0.001' (-158.0000) 1.5 183 46 1.6 3.60 2.91
1-17-2018 13:00:16 22o 46.440' ( 22.7740) 157o 59.943' (-157.9991) 0.6 315 49 2.2 3.60 2.88
1-17-2018 12:00:18 22o 46.430' ( 22.7738) 158o 0.080' (-158.0013) 0.4 9 46 1.0 3.60 2.88
1-17-2018 11:00:36 22o 46.742' ( 22.7790) 158o 0.435' (-158.0072) 0.6 348 45 1.2 3.12 2.88
1-17-2018 10:00:43 22o 45.004' ( 22.7501) 158o 0.122' (-158.0020) 0.1 0 49 2.2 3.57 2.88
1-17-2018 9:00:19 22o 45.042' ( 22.7507) 158o 0.322' (-158.0054) 0.3 330 46 1.4 3.60 2.88
1-17-2018 8:00:36 22o 44.922' ( 22.7487) 158o 0.009' (-158.0001) 1.5 9 47 1.0 3.57 2.91
1-17-2018 7:45:17 22o 42.505' ( 22.7084) 158o 0.766' (-158.0128) 6.5 15 46 1.4 3.60 2.91
1-17-2018 7:30:14 22o 39.455' ( 22.6576) 158o 1.636' (-158.0273) 6.3 12 48 2.0 3.60 2.85
1-17-2018 7:15:13 22o 36.402' ( 22.6067) 158o 2.460' (-158.0410) 6.3 18 45 1.2 3.60 2.85
1-17-2018 7:00:13 22o 33.361' ( 22.5560) 158o 3.263' (-158.0544) 6.3 18 49 0.8 3.54 2.82
1-17-2018 6:57:24 22o 32.793' ( 22.5465) 158o 3.419' (-158.0570) 6.4 15 49 0.8 3.57 2.82

Xeos # 3 : IMEI 50010 (s/n 79)

*Note: The cut-off voltage for the Xeos Apollo Beacon is 1.5V .

GMT GMT Latitude Longitude Speed Head SNR HDOP Batt(u) Batt(l)
date time deg N deg W knots deg volts volts
1-20-2018 18:00:17 21o 18.906' ( 21.3151) 157o 52.642' (-157.8774) 0.0 0 45 1.0 3.54 2.34
1-20-2018 17:00:36 21o 18.899' ( 21.3150) 157o 52.636' (-157.8773) 0.1 0 48 2.2 3.51 2.37
1-20-2018 16:00:17 21o 18.901' ( 21.3150) 157o 52.639' (-157.8773) 2.9 21 48 1.2 3.51 2.34
1-20-2018 15:00:19 21o 18.902' ( 21.3150) 157o 52.636' (-157.8773) 0.1 0 45 1.2 3.51 2.40
1-20-2018 14:00:35 21o 18.900' ( 21.3150) 157o 52.638' (-157.8773) 0.2 0 46 2.0 3.48 2.37
1-20-2018 13:00:18 21o 18.908' ( 21.3151) 157o 52.638' (-157.8773) 0.0 0 43 1.0 3.48 2.37
1-20-2018 12:00:18 21o 18.901' ( 21.3150) 157o 52.634' (-157.8772) 0.1 276 43 2.2 2.58 2.40
1-20-2018 11:00:32 21o 18.902' ( 21.3150) 157o 52.648' (-157.8775) 0.0 0 49 1.0 3.51 2.43
1-20-2018 10:00:29 21o 18.914' ( 21.3152) 157o 52.644' (-157.8774) 0.1 0 48 6.2 3.51 2.40
1-20-2018 9:00:36 21o 18.901' ( 21.3150) 157o 52.629' (-157.8772) 0.0 0 49 1.4 3.48 2.40
1-20-2018 8:00:17 21o 18.898' ( 21.3150) 157o 52.634' (-157.8772) 0.1 0 47 1.4 3.51 2.43
1-20-2018 7:00:18 21o 18.898' ( 21.3150) 157o 52.632' (-157.8772) 0.1 0 48 3.2 3.51 2.43
1-20-2018 6:00:43 21o 18.900' ( 21.3150) 157o 52.620' (-157.8770) 0.0 0 48 3.4 3.51 2.43
1-20-2018 5:00:18 21o 18.894' ( 21.3149) 157o 52.653' (-157.8776) 0.2 69 47 3.0 3.51 2.40
1-20-2018 4:00:17 21o 18.896' ( 21.3149) 157o 52.649' (-157.8775) 0.1 0 51 4.4 3.51 2.49
1-20-2018 3:00:37 21o 18.900' ( 21.3150) 157o 52.632' (-157.8772) 0.0 0 47 1.4 3.51 2.49
1-20-2018 2:00:14 21o 18.906' ( 21.3151) 157o 52.655' (-157.8776) 0.1 165 50 4.0 3.54 2.55
1-20-2018 1:00:31 21o 18.905' ( 21.3151) 157o 52.644' (-157.8774) 0.0 0 48 1.8 3.54 2.58
1-20-2018 0:00:12 21o 18.896' ( 21.3149) 157o 52.634' (-157.8772) 0.0 0 47 1.4 3.54 2.52
1-19-2018 23:00:14 21o 18.905' ( 21.3151) 157o 52.643' (-157.8774) 0.1 0 45 3.2 3.54 2.46
1-19-2018 22:00:35 21o 18.904' ( 21.3151) 157o 52.640' (-157.8773) 0.0 0 45 1.2 3.51 2.46
1-19-2018 21:00:13 21o 18.905' ( 21.3151) 157o 52.634' (-157.8772) 0.1 0 47 3.2 3.54 2.43
1-19-2018 20:00:36 21o 18.901' ( 21.3150) 157o 52.634' (-157.8772) 0.0 0 48 1.2 3.54 2.40
1-19-2018 19:00:12 21o 18.899' ( 21.3150) 157o 52.630' (-157.8772) 0.1 0 45 1.4 3.54 2.43
1-19-2018 18:00:18 21o 18.898' ( 21.3150) 157o 52.639' (-157.8773) 0.0 0 45 4.2 3.51 2.40
1-19-2018 17:00:34 21o 18.897' ( 21.3149) 157o 52.636' (-157.8773) 0.1 0 45 1.0 3.51 2.40
1-19-2018 16:00:19 21o 18.897' ( 21.3149) 157o 52.634' (-157.8772) 0.1 0 48 1.2 3.51 2.43
1-19-2018 15:00:17 21o 18.898' ( 21.3150) 157o 52.632' (-157.8772) 0.2 354 44 1.4 3.48 2.40
1-19-2018 14:00:36 21o 18.898' ( 21.3150) 157o 52.634' (-157.8772) 0.1 0 47 2.4 2.61 2.43
1-19-2018 13:00:18 21o 18.901' ( 21.3150) 157o 52.634' (-157.8772) 0.1 0 46 1.4 3.51 2.43
1-19-2018 12:00:17 21o 18.899' ( 21.3150) 157o 52.636' (-157.8773) 0.0 0 46 1.0 2.61 2.46
1-19-2018 11:00:36 21o 18.899' ( 21.3150) 157o 52.634' (-157.8772) 0.0 0 49 1.0 3.48 2.40
1-19-2018 10:00:22 21o 18.904' ( 21.3151) 157o 52.636' (-157.8773) 0.1 0 46 4.8 3.51 2.46
1-19-2018 9:00:18 21o 18.898' ( 21.3150) 157o 52.634' (-157.8772) 0.0 0 50 1.4 3.51 2.43
1-19-2018 8:00:35 21o 18.896' ( 21.3149) 157o 52.632' (-157.8772) 0.1 0 46 2.0 3.51 2.43
1-19-2018 7:00:17 21o 18.896' ( 21.3149) 157o 52.627' (-157.8771) 0.1 276 48 2.0 3.51 2.49
1-19-2018 6:00:18 21o 18.897' ( 21.3149) 157o 52.634' (-157.8772) 0.0 0 46 1.0 2.61 2.49
1-19-2018 5:00:35 21o 18.898' ( 21.3150) 157o 52.634' (-157.8772) 0.1 0 48 0.8 3.51 2.55
1-19-2018 4:00:12 21o 18.898' ( 21.3150) 157o 52.634' (-157.8772) 0.1 0 49 4.8 3.54 2.58
1-19-2018 3:00:29 21o 18.899' ( 21.3150) 157o 52.637' (-157.8773) 0.0 0 46 1.2 3.51 2.55
1-19-2018 2:00:35 21o 18.899' ( 21.3150) 157o 52.633' (-157.8772) 0.2 0 49 1.8 3.54 2.55
1-19-2018 1:00:13 21o 18.898' ( 21.3150) 157o 52.634' (-157.8772) 0.1 0 47 1.8 3.54 2.55
1-19-2018 0:00:14 21o 18.898' ( 21.3150) 157o 52.634' (-157.8772) 0.0 0 46 1.0 3.57 2.49
1-18-2018 23:00:35 21o 18.896' ( 21.3149) 157o 52.632' (-157.8772) 0.0 0 47 1.8 3.51 2.49
1-18-2018 22:00:13 21o 18.896' ( 21.3149) 157o 52.634' (-157.8772) 0.1 156 44 1.4 3.51 2.46
1-18-2018 21:00:13 21o 18.899' ( 21.3150) 157o 52.634' (-157.8772) 0.0 0 46 2.8 3.54 2.52
1-18-2018 20:00:35 21o 18.898' ( 21.3150) 157o 52.632' (-157.8772) 0.3 0 49 2.8 3.54 2.49
1-18-2018 19:00:13 21o 18.901' ( 21.3150) 157o 52.638' (-157.8773) 0.1 0 47 3.2 3.54 2.49
1-18-2018 17:00:36 21o 18.896' ( 21.3149) 157o 52.636' (-157.8773) 0.1 0 47 1.0 3.51 2.46
1-18-2018 16:00:17 21o 18.896' ( 21.3149) 157o 52.634' (-157.8772) 0.1 0 46 1.0 3.48 2.43
1-18-2018 15:00:18 21o 18.901' ( 21.3150) 157o 52.634' (-157.8772) 0.1 0 44 1.0 3.51 2.46
1-18-2018 14:00:36 21o 18.899' ( 21.3150) 157o 52.634' (-157.8772) 0.0 0 47 0.8 2.94 2.46
1-18-2018 13:00:17 21o 18.898' ( 21.3150) 157o 52.632' (-157.8772) 0.0 0 45 0.8 3.51 2.46
1-18-2018 12:00:19 21o 18.904' ( 21.3151) 157o 52.634' (-157.8772) 0.1 0 45 4.4 3.51 2.46
1-18-2018 11:00:36 21o 18.899' ( 21.3150) 157o 52.634' (-157.8772) 0.1 0 50 1.4 3.51 2.46
1-18-2018 10:00:18 21o 18.899' ( 21.3150) 157o 52.632' (-157.8772) 0.1 0 46 1.2 3.51 2.49
1-18-2018 9:00:18 21o 18.898' ( 21.3150) 157o 52.634' (-157.8772) 0.1 0 49 2.2 3.51 2.52
1-18-2018 8:00:36 21o 18.898' ( 21.3150) 157o 52.637' (-157.8773) 0.0 0 46 1.2 3.51 2.52
1-18-2018 7:00:18 21o 18.899' ( 21.3150) 157o 52.657' (-157.8776) 0.2 0 48 2.2 3.51 2.49
1-18-2018 6:00:17 21o 18.899' ( 21.3150) 157o 52.634' (-157.8772) 0.0 0 46 1.0 2.61 2.55
1-18-2018 5:00:35 21o 18.898' ( 21.3150) 157o 52.634' (-157.8772) 0.0 0 47 1.0 3.51 2.58
1-18-2018 4:00:18 21o 18.895' ( 21.3149) 157o 52.627' (-157.8771) 0.3 0 50 1.6 3.51 2.61
1-18-2018 3:00:28 21o 18.899' ( 21.3150) 157o 52.632' (-157.8772) 0.0 0 46 1.4 3.51 2.55
1-18-2018 2:00:35 21o 18.899' ( 21.3150) 157o 52.633' (-157.8772) 0.1 0 48 1.0 3.54 2.61
1-18-2018 1:00:13 21o 18.898' ( 21.3150) 157o 52.634' (-157.8772) 0.1 0 46 2.2 3.54 2.49
1-18-2018 0:00:13 21o 18.899' ( 21.3150) 157o 52.634' (-157.8772) 0.0 0 48 1.0 3.54 2.52
1-17-2018 23:00:35 21o 18.899' ( 21.3150) 157o 52.634' (-157.8772) 0.0 0 47 1.0 3.54 2.52
1-17-2018 22:00:13 21o 18.904' ( 21.3151) 157o 52.633' (-157.8772) 0.0 0 45 1.2 3.54 2.58
1-17-2018 21:00:13 21o 18.899' ( 21.3150) 157o 52.632' (-157.8772) 0.0 0 48 1.4 3.54 2.55
1-17-2018 20:00:35 21o 18.898' ( 21.3150) 157o 52.632' (-157.8772) 0.0 0 50 1.4 3.54 2.52
1-17-2018 19:00:13 21o 18.899' ( 21.3150) 157o 52.636' (-157.8773) 0.1 0 46 1.4 3.54 2.49
1-17-2018 18:00:18 21o 18.899' ( 21.3150) 157o 52.632' (-157.8772) 0.1 0 46 1.2 3.51 2.49
1-17-2018 17:00:36 21o 18.898' ( 21.3150) 157o 52.633' (-157.8772) 0.0 0 47 1.0 3.51 2.49
1-17-2018 16:00:17 21o 18.897' ( 21.3149) 157o 52.634' (-157.8772) 0.1 0 46 1.0 3.51 2.49
1-17-2018 15:00:17 21o 18.898' ( 21.3150) 157o 52.632' (-157.8772) 0.1 0 45 1.2 3.48 2.52
1-17-2018 14:00:35 21o 18.898' ( 21.3150) 157o 52.634' (-157.8772) 0.1 0 46 1.4 3.51 2.46
1-17-2018 13:00:17 21o 18.898' ( 21.3150) 157o 52.632' (-157.8772) 0.0 0 47 1.0 3.51 2.49
1-17-2018 12:00:17 21o 18.899' ( 21.3150) 157o 52.632' (-157.8772) 0.1 0 45 1.4 3.48 2.49
1-17-2018 11:00:36 21o 18.898' ( 21.3150) 157o 52.634' (-157.8772) 0.2 0 49 1.6 3.51 2.49
1-17-2018 10:00:18 21o 18.902' ( 21.3150) 157o 52.634' (-157.8772) 0.1 0 48 2.2 3.51 2.49
1-17-2018 9:00:18 21o 18.899' ( 21.3150) 157o 52.630' (-157.8772) 0.1 0 48 2.2 3.51 2.52
1-17-2018 8:00:36 21o 18.895' ( 21.3149) 157o 52.632' (-157.8772) 0.1 0 46 2.0 3.48 2.52
1-17-2018 7:00:20 21o 18.895' ( 21.3149) 157o 52.627' (-157.8771) 0.2 93 47 1.8 3.48 2.58
1-17-2018 6:00:17 21o 18.898' ( 21.3150) 157o 52.634' (-157.8772) 0.1 0 45 1.0 3.51 2.58
1-17-2018 5:00:36 21o 18.898' ( 21.3150) 157o 52.634' (-157.8772) 0.1 0 48 1.0 3.51 2.61
1-17-2018 4:00:13 21o 18.895' ( 21.3149) 157o 52.636' (-157.8773) 0.0 0 50 1.2 3.54 2.73
1-17-2018 3:00:24 21o 18.899' ( 21.3150) 157o 52.637' (-157.8773) 0.1 0 45 6.8 3.54 2.64
1-17-2018 2:00:41 21o 18.899' ( 21.3150) 157o 52.636' (-157.8773) 0.1 0 48 3.6 3.51 2.67
1-17-2018 1:00:12 21o 18.899' ( 21.3150) 157o 52.634' (-157.8772) 0.0 0 49 1.4 3.51 2.61
1-17-2018 0:00:12 21o 18.899' ( 21.3150) 157o 52.638' (-157.8773) 0.0 0 47 1.2 3.51 2.61
1-16-2018 23:00:36 21o 18.902' ( 21.3150) 157o 52.634' (-157.8772) 0.0 0 47 0.6 3.54 2.61
1-16-2018 22:00:13 21o 18.897' ( 21.3149) 157o 52.637' (-157.8773) 0.0 0 45 1.6 3.54 2.58
1-16-2018 21:00:10 21o 18.901' ( 21.3150) 157o 52.629' (-157.8772) 0.1 78 47 1.8 3.51 2.58
1-16-2018 20:00:36 21o 18.899' ( 21.3150) 157o 52.634' (-157.8772) 0.0 0 50 1.0 3.51 2.55
1-16-2018 19:00:12 21o 18.900' ( 21.3150) 157o 52.633' (-157.8772) 0.1 0 45 1.6 3.54 2.58
1-16-2018 18:00:18 21o 18.898' ( 21.3150) 157o 52.637' (-157.8773) 0.0 0 47 1.0 3.51 2.58
1-16-2018 17:00:39 21o 18.899' ( 21.3150) 157o 52.634' (-157.8772) 0.0 0 46 0.6 3.51 2.52
1-16-2018 16:00:19 21o 18.902' ( 21.3150) 157o 52.638' (-157.8773) 0.1 0 46 1.2 3.51 2.55
1-16-2018 15:00:18 21o 18.901' ( 21.3150) 157o 52.632' (-157.8772) 0.1 0 43 1.0 3.51 2.55
1-16-2018 14:00:36 21o 18.899' ( 21.3150) 157o 52.636' (-157.8773) 0.0 0 45 1.4 3.48 2.49
1-16-2018 13:00:18 21o 18.893' ( 21.3149) 157o 52.648' (-157.8775) 0.0 0 46 0.8 3.51 2.58
1-16-2018 12:00:18 21o 18.898' ( 21.3150) 157o 52.638' (-157.8773) 0.0 0 47 1.6 3.48 2.58
1-16-2018 11:00:36 21o 18.906' ( 21.3151) 157o 52.642' (-157.8774) 0.0 0 50 1.0 3.51 2.55
1-16-2018 10:00:18 21o 18.905' ( 21.3151) 157o 52.664' (-157.8777) 0.1 0 48 2.0 3.51 2.55
1-16-2018 9:00:17 21o 18.902' ( 21.3150) 157o 52.633' (-157.8772) 0.0 0 48 1.2 3.51 2.58
1-16-2018 8:01:10 21o 18.894' ( 21.3149) 157o 52.634' (-157.8772) 0.0 0 47 0.8 3.48 2.55
1-16-2018 7:00:20 21o 18.901' ( 21.3150) 157o 52.636' (-157.8773) 0.1 0 47 1.8 3.51 2.61
1-16-2018 6:00:18 21o 18.905' ( 21.3151) 157o 52.634' (-157.8772) 0.1 0 46 1.2 3.51 2.64
1-16-2018 5:00:18 21o 18.899' ( 21.3150) 157o 52.634' (-157.8772) 0.0 0 49 3.2 2.67 2.67
1-16-2018 4:00:36 21o 18.899' ( 21.3150) 157o 52.636' (-157.8773) 0.0 0 47 1.4 3.51 2.64
1-16-2018 3:00:13 21o 18.904' ( 21.3151) 157o 52.634' (-157.8772) 0.1 0 46 1.4 3.54 2.79
1-16-2018 2:00:13 21o 18.903' ( 21.3150) 157o 52.650' (-157.8775) 0.1 0 47 1.4 3.54 2.73
1-16-2018 1:00:37 21o 18.914' ( 21.3152) 157o 52.641' (-157.8774) 0.0 0 47 0.6 3.51 2.73
1-16-2018 0:00:13 21o 18.910' ( 21.3152) 157o 52.636' (-157.8773) 0.1 0 48 2.8 3.54 2.73
1-15-2018 23:00:13 21o 18.898' ( 21.3150) 157o 52.630' (-157.8772) 0.1 0 47 4.6 3.54 2.67
1-15-2018 22:00:35 21o 18.901' ( 21.3150) 157o 52.636' (-157.8773) 0.1 0 45 2.0 3.51 2.61
1-15-2018 21:00:12 21o 18.898' ( 21.3150) 157o 52.634' (-157.8772) 0.1 0 48 2.0 3.54 2.61
1-15-2018 20:00:12 21o 18.910' ( 21.3152) 157o 52.636' (-157.8773) 0.1 0 48 1.4 3.54 2.67
1-15-2018 19:00:18 21o 18.904' ( 21.3151) 157o 52.639' (-157.8773) 0.1 0 45 1.6 3.54 2.64
1-15-2018 18:00:36 21o 18.899' ( 21.3150) 157o 52.634' (-157.8772) 0.1 0 47 1.2 3.51 2.61
1-15-2018 17:00:17 21o 18.895' ( 21.3149) 157o 52.638' (-157.8773) 0.1 0 47 1.4 3.51 2.52
1-15-2018 16:00:18 21o 18.910' ( 21.3152) 157o 52.644' (-157.8774) 0.0 0 47 2.0 3.51 2.58
1-15-2018 15:00:35 21o 18.901' ( 21.3150) 157o 52.646' (-157.8774) 0.1 0 43 1.2 3.51 2.61
1-15-2018 14:00:17 21o 18.904' ( 21.3151) 157o 52.638' (-157.8773) 0.1 102 45 1.6 3.51 2.55
1-15-2018 13:00:17 21o 18.896' ( 21.3149) 157o 52.646' (-157.8774) 0.0 0 46 1.4 3.51 2.58
1-15-2018 12:00:35 21o 18.898' ( 21.3150) 157o 52.636' (-157.8773) 0.4 0 47 1.2 3.48 2.52
1-15-2018 11:00:18 21o 18.910' ( 21.3152) 157o 52.643' (-157.8774) 0.0 0 50 1.0 3.51 2.58
1-15-2018 10:00:20 21o 18.903' ( 21.3150) 157o 52.638' (-157.8773) 0.0 0 49 1.2 3.51 2.58
1-15-2018 9:00:36 21o 18.902' ( 21.3150) 157o 52.640' (-157.8773) 0.0 0 50 0.6 3.48 2.55
1-15-2018 8:00:16 21o 18.900' ( 21.3150) 157o 52.638' (-157.8773) 0.1 0 48 2.2 3.51 2.64
1-15-2018 7:00:17 21o 18.895' ( 21.3149) 157o 52.638' (-157.8773) 0.0 0 47 0.6 2.70 2.61
1-15-2018 6:00:38 21o 18.896' ( 21.3149) 157o 52.638' (-157.8773) 0.0 0 48 0.6 3.51 2.70
1-15-2018 5:00:18 21o 18.904' ( 21.3151) 157o 52.634' (-157.8772) 0.1 0 50 2.6 3.51 2.61
1-15-2018 4:00:31 21o 18.894' ( 21.3149) 157o 52.648' (-157.8775) 0.0 0 47 1.0 3.54 2.79
1-15-2018 3:00:41 21o 18.900' ( 21.3150) 157o 52.634' (-157.8772) 0.0 0 49 0.8 3.54 2.76
1-15-2018 2:00:13 21o 18.905' ( 21.3151) 157o 52.641' (-157.8774) 0.0 0 48 1.2 3.54 2.82
1-15-2018 1:00:42 21o 18.890' ( 21.3148) 157o 52.640' (-157.8773) 0.0 0 46 0.8 3.51 2.82
1-15-2018 0:00:16 21o 18.901' ( 21.3150) 157o 52.639' (-157.8773) 0.1 0 49 1.4 3.54 2.79
1-14-2018 23:00:13 21o 18.899' ( 21.3150) 157o 52.634' (-157.8772) 0.1 132 49 2.2 3.54 2.76
1-14-2018 22:00:35 21o 18.896' ( 21.3149) 157o 52.646' (-157.8774) 0.1 0 46 0.8 3.54 2.73
1-14-2018 21:00:17 21o 18.915' ( 21.3152) 157o 52.634' (-157.8772) 0.1 0 48 2.0 3.51 2.67
1-14-2018 20:00:11 21o 18.908' ( 21.3151) 157o 52.641' (-157.8774) 0.1 0 48 1.4 3.54 2.73
1-14-2018 19:00:16 21o 18.899' ( 21.3150) 157o 52.634' (-157.8772) 0.1 0 46 2.0 3.54 2.58
1-14-2018 18:00:36 21o 18.899' ( 21.3150) 157o 52.636' (-157.8773) 0.0 0 46 3.8 3.54 2.61
1-14-2018 17:00:18 21o 18.884' ( 21.3147) 157o 52.648' (-157.8775) 0.0 0 46 1.0 3.51 2.64
1-14-2018 16:00:19 21o 18.896' ( 21.3149) 157o 52.636' (-157.8773) 0.1 0 47 1.4 3.48 2.61
1-14-2018 15:00:36 21o 18.896' ( 21.3149) 157o 52.631' (-157.8772) 0.1 0 43 1.2 3.51 2.58
1-14-2018 14:00:19 21o 18.906' ( 21.3151) 157o 52.641' (-157.8774) 0.0 0 47 1.0 3.48 2.55
1-14-2018 13:00:18 21o 18.896' ( 21.3149) 157o 52.627' (-157.8771) 0.1 0 48 1.4 3.51 2.64
1-14-2018 12:00:36 21o 18.897' ( 21.3149) 157o 52.632' (-157.8772) 0.0 0 48 1.2 3.51 2.67
1-14-2018 11:00:18 21o 18.925' ( 21.3154) 157o 52.637' (-157.8773) 0.3 132 49 1.8 3.51 2.64
1-14-2018 10:00:19 21o 18.909' ( 21.3151) 157o 52.634' (-157.8772) 0.0 0 47 2.6 3.51 2.70
1-14-2018 9:00:39 21o 18.904' ( 21.3151) 157o 52.639' (-157.8773) 0.0 0 47 0.8 3.51 2.70
1-14-2018 8:00:18 21o 18.896' ( 21.3149) 157o 52.630' (-157.8772) 0.0 0 48 1.2 3.51 2.73
1-14-2018 7:00:18 21o 18.896' ( 21.3149) 157o 52.630' (-157.8772) 0.0 0 48 0.8 3.51 2.70
1-14-2018 6:00:37 21o 18.899' ( 21.3150) 157o 52.636' (-157.8773) 0.0 0 46 0.8 2.70 2.73
1-14-2018 5:00:19 21o 18.901' ( 21.3150) 157o 52.632' (-157.8772) 0.1 0 48 1.4 3.51 2.61
1-14-2018 4:00:16 21o 18.898' ( 21.3150) 157o 52.632' (-157.8772) 0.0 0 49 1.0 3.48 2.79
1-14-2018 3:00:36 21o 18.899' ( 21.3150) 157o 52.636' (-157.8773) 0.0 0 48 0.8 3.51 2.79
1-14-2018 2:00:12 21o 18.898' ( 21.3150) 157o 52.639' (-157.8773) 0.1 0 48 2.4 3.51 2.76
1-14-2018 1:00:13 21o 18.896' ( 21.3149) 157o 52.644' (-157.8774) 0.0 0 49 1.4 3.54 2.79
1-14-2018 0:00:35 21o 18.900' ( 21.3150) 157o 52.638' (-157.8773) 0.1 0 50 0.8 3.54 2.82
1-13-2018 23:00:13 21o 18.907' ( 21.3151) 157o 52.638' (-157.8773) 0.1 0 48 1.4 3.54 2.82
1-13-2018 22:00:12 21o 18.902' ( 21.3150) 157o 52.634' (-157.8772) 0.0 0 47 2.0 3.54 2.79
1-13-2018 21:00:36 21o 18.899' ( 21.3150) 157o 52.638' (-157.8773) 0.0 0 48 0.8 3.51 2.73
1-13-2018 20:00:26 21o 18.916' ( 21.3153) 157o 52.628' (-157.8771) 0.0 0 47 1.4 3.54 2.73
1-13-2018 19:00:18 21o 18.904' ( 21.3151) 157o 52.634' (-157.8772) 0.0 0 46 2.0 3.54 2.70